»·PEaware :: WAT3011 KDEN-KGEG

WAT3011 :: KDEN-KGEG

FLIGHT INFORMATION

Flight Status: Arrived
Operator:
Walker Air Transport
More flights by this operator :: More flights under this callsign
Pilot: Rich H. (35210)
Aircraft: EMBRAER EMB-170/175
(E170)
More flights by this aircraft type
Origin: KDEN Denver Intl
United States
Destination: KGEG Spokane Intl
United States
More flights between these airports :: More routes between these airports
Route: XXWNG1 XXWNG BOY MLP HILIE3
File this flight plan on PilotEdge
Remarks: RMK / SIMBRIEF
Altitude:
(Current/Filed)
34,000ft
Speed:
(Current/Filed)
446kts
Departed: 01-Jul-23 03:48 PM
Arrived: 01-Jul-23 05:53 PM
Distance/Time
Traveled:
725nm/2:05
Distance/Time
To Go:
Arrived

Flight Plot

Page will automatically refresh every two minutes.

Flight plan parsing failed; only flown route is shown


Map Options




Map Legend


Flown Route
Filed Route
Departure Airport
Arrival Airport
Navaid (VOR, NDB)
Fix

Horizontal Profiles

Position Reports

Time Latitude Longitude Heading Altitude Ground
Speed
01-Jul-23 15:15 39.859393 -104.666542 179 5441ft 0kts
01-Jul-23 15:16 39.859393 -104.666542 179 5441ft 0kts
01-Jul-23 15:17 39.859393 -104.666542 179 5441ft 0kts
01-Jul-23 15:18 39.859393 -104.666542 179 5441ft 0kts
01-Jul-23 15:19 39.859393 -104.666542 179 5441ft 0kts
01-Jul-23 15:20 39.859393 -104.666542 179 5441ft 0kts
01-Jul-23 15:21 39.859393 -104.666542 179 5441ft 0kts
01-Jul-23 15:22 39.859393 -104.666542 179 5441ft 0kts
01-Jul-23 15:23 39.859393 -104.666542 179 5441ft 0kts
01-Jul-23 15:24 39.859393 -104.666542 179 5441ft 0kts
01-Jul-23 15:25 39.859393 -104.666542 179 5441ft 0kts
01-Jul-23 15:26 39.859393 -104.666542 179 5441ft 0kts
01-Jul-23 15:27 39.859393 -104.666542 179 5441ft 0kts
01-Jul-23 15:28 39.859393 -104.666542 179 5441ft 0kts
01-Jul-23 15:29 39.859393 -104.666542 179 5441ft 0kts
01-Jul-23 15:30 39.859393 -104.666542 179 5441ft 0kts
01-Jul-23 15:31 39.859393 -104.666542 179 5441ft 0kts
01-Jul-23 15:32 39.859393 -104.666542 179 5441ft 0kts
01-Jul-23 15:33 39.859393 -104.666542 179 5441ft 0kts
01-Jul-23 15:34 39.859706 -104.666542 179 5442ft 2kts
01-Jul-23 15:35 39.859994 -104.666277 270 5442ft 0kts
01-Jul-23 15:36 39.859994 -104.666278 270 5441ft 0kts
01-Jul-23 15:37 39.859994 -104.666278 270 5441ft 0kts
01-Jul-23 15:38 39.860156 -104.666931 303 5442ft 7kts
01-Jul-23 15:39 39.860620 -104.670581 269 5441ft 12kts
01-Jul-23 15:40 39.860644 -104.675099 271 5441ft 12kts
01-Jul-23 15:41 39.860693 -104.679869 271 5442ft 13kts
01-Jul-23 15:42 39.859345 -104.683954 179 5441ft 14kts
01-Jul-23 15:43 39.854531 -104.684006 179 5441ft 20kts
01-Jul-23 15:44 39.848058 -104.684091 179 5442ft 26kts
01-Jul-23 15:45 39.842576 -104.684178 177 5442ft 11kts
01-Jul-23 15:46 39.841065 -104.684172 180 5441ft 13kts
01-Jul-23 15:47 39.840832 -104.719532 270 6032ft 200kts
01-Jul-23 15:48 39.874965 -104.793538 308 9653ft 268kts
01-Jul-23 15:49 39.916732 -104.873839 304 13490ft 306kts
01-Jul-23 15:50 39.988358 -104.944373 330 17021ft 339kts
01-Jul-23 15:51 40.082674 -104.936560 12 20476ft 366kts
01-Jul-23 15:52 40.169464 -104.859870 36 23152ft 398kts
01-Jul-23 15:53 40.272415 -104.829608 356 23194ft 394kts
01-Jul-23 15:54 40.383257 -104.833773 355 23189ft 404kts
01-Jul-23 15:55 40.493369 -104.838213 355 25541ft 378kts
01-Jul-23 15:56 40.601251 -104.842667 355 27727ft 395kts
01-Jul-23 15:57 40.712036 -104.847206 355 29979ft 401kts
01-Jul-23 15:58 40.812655 -104.886330 320 32341ft 385kts
01-Jul-23 15:59 40.891957 -104.980714 318 34172ft 386kts
01-Jul-23 16:00 40.974849 -105.081805 318 34233ft 410kts
01-Jul-23 16:01 41.057113 -105.182512 319 34244ft 397kts
01-Jul-23 16:02 41.136638 -105.280178 320 34280ft 385kts
01-Jul-23 16:03 41.215158 -105.376916 320 34303ft 386kts
01-Jul-23 16:04 41.293668 -105.474035 320 34303ft 386kts
01-Jul-23 16:05 41.372316 -105.571643 320 34301ft 386kts
01-Jul-23 16:06 41.450703 -105.669281 319 34303ft 387kts
01-Jul-23 16:07 41.529213 -105.767374 319 34302ft 387kts
01-Jul-23 16:08 41.607219 -105.865213 319 34301ft 386kts
01-Jul-23 16:09 41.685605 -105.963854 319 34299ft 386kts
01-Jul-23 16:10 41.763441 -106.062160 319 34297ft 387kts
01-Jul-23 16:11 41.841622 -106.161241 319 34299ft 386kts
01-Jul-23 16:12 41.919507 -106.260304 319 34301ft 387kts
01-Jul-23 16:13 41.997402 -106.359700 319 34294ft 386kts
01-Jul-23 16:14 42.075222 -106.459406 319 34291ft 386kts
01-Jul-23 16:15 42.152922 -106.559278 319 34251ft 386kts
01-Jul-23 16:16 42.230526 -106.659406 319 34222ft 386kts
01-Jul-23 16:17 42.308023 -106.759732 319 34227ft 386kts
01-Jul-23 16:18 42.385628 -106.860540 318 34205ft 390kts
01-Jul-23 16:19 42.464305 -106.963151 318 34214ft 396kts
01-Jul-23 16:20 42.544084 -107.067590 318 34190ft 401kts
01-Jul-23 16:21 42.624082 -107.172703 318 34201ft 401kts
01-Jul-23 16:22 42.703972 -107.278063 318 34180ft 401kts
01-Jul-23 16:23 42.784050 -107.384069 318 34193ft 401kts
01-Jul-23 16:24 42.863964 -107.490274 318 34194ft 401kts
01-Jul-23 16:25 42.943127 -107.595892 318 34184ft 395kts
01-Jul-23 16:26 43.020656 -107.699702 318 34188ft 388kts
01-Jul-23 16:27 43.097220 -107.802584 318 34185ft 386kts
01-Jul-23 16:28 43.173733 -107.905778 318 34196ft 386kts
01-Jul-23 16:29 43.250089 -108.009173 318 34194ft 386kts
01-Jul-23 16:30 43.326339 -108.112778 318 34192ft 386kts
01-Jul-23 16:31 43.402450 -108.216625 318 34190ft 386kts
01-Jul-23 16:32 43.476735 -108.323148 315 34193ft 387kts
01-Jul-23 16:33 43.546961 -108.435924 314 34179ft 388kts
01-Jul-23 16:34 43.616371 -108.549238 314 34143ft 389kts
01-Jul-23 16:35 43.686060 -108.663415 313 34159ft 389kts
01-Jul-23 16:36 43.755650 -108.777890 313 34215ft 389kts
01-Jul-23 16:37 43.824871 -108.892245 313 34232ft 388kts
01-Jul-23 16:38 43.894217 -109.007191 313 34235ft 390kts
01-Jul-23 16:40 43.963889 -109.123181 313 34236ft 395kts
01-Jul-23 16:41 44.034661 -109.241518 312 34233ft 399kts
01-Jul-23 16:42 44.105243 -109.359989 312 34241ft 398kts
01-Jul-23 16:43 44.175924 -109.479144 312 34244ft 399kts
01-Jul-23 16:44 44.246264 -109.598211 312 34246ft 399kts
01-Jul-23 16:45 44.316584 -109.717736 312 34247ft 399kts
01-Jul-23 16:46 44.386847 -109.837647 312 34249ft 399kts
01-Jul-23 16:47 44.457023 -109.957908 312 34253ft 399kts
01-Jul-23 16:48 44.526955 -110.078256 312 34302ft 398kts
01-Jul-23 16:49 44.596685 -110.198800 312 34345ft 398kts
01-Jul-23 16:50 44.666323 -110.319690 312 34337ft 399kts
01-Jul-23 16:51 44.735763 -110.440708 312 34343ft 398kts
01-Jul-23 16:52 44.805332 -110.562498 312 34341ft 398kts
01-Jul-23 16:53 44.874434 -110.683973 311 34342ft 399kts
01-Jul-23 16:54 44.943744 -110.806328 311 34342ft 399kts
01-Jul-23 16:55 45.012375 -110.928024 311 34341ft 395kts
01-Jul-23 16:56 45.080576 -111.049439 311 34340ft 394kts
01-Jul-23 16:57 45.148649 -111.171184 311 34324ft 394kts
01-Jul-23 16:58 45.216288 -111.292687 311 34258ft 395kts
01-Jul-23 16:59 45.284112 -111.415011 311 34238ft 395kts
01-Jul-23 17:00 45.351882 -111.537809 311 34237ft 395kts
01-Jul-23 17:01 45.419268 -111.660393 310 34238ft 395kts
01-Jul-23 17:02 45.486791 -111.783764 310 34239ft 395kts
01-Jul-23 17:03 45.554214 -111.907518 310 34237ft 395kts
01-Jul-23 17:04 45.621309 -112.031187 310 34233ft 395kts
01-Jul-23 17:05 45.688515 -112.155641 310 34207ft 395kts
01-Jul-23 17:06 45.755393 -112.280021 310 34189ft 395kts
01-Jul-23 17:07 45.822397 -112.405171 310 34186ft 395kts
01-Jul-23 17:08 45.889132 -112.530378 310 34185ft 396kts
01-Jul-23 17:09 45.956020 -112.656449 309 34184ft 395kts
01-Jul-23 17:10 46.022646 -112.782579 309 34186ft 395kts
01-Jul-23 17:10 46.078089 -112.887948 309 34186ft 399kts
01-Jul-23 17:12 46.156590 -113.037861 309 34194ft 404kts
01-Jul-23 17:13 46.224081 -113.167388 309 34194ft 404kts
01-Jul-23 17:14 46.291473 -113.297268 308 34174ft 403kts
01-Jul-23 17:14 46.347218 -113.405268 309 34115ft 403kts
01-Jul-23 17:15 46.414213 -113.535554 309 34047ft 404kts
01-Jul-23 17:16 46.481121 -113.666281 308 34047ft 404kts
01-Jul-23 17:18 46.558793 -113.818802 308 34044ft 404kts
01-Jul-23 17:18 46.614206 -113.928126 308 34043ft 404kts
01-Jul-23 17:19 46.680641 -114.059752 308 34044ft 404kts
01-Jul-23 17:20 46.746887 -114.191641 308 34042ft 404kts
01-Jul-23 17:21 46.813121 -114.324125 308 34042ft 404kts
01-Jul-23 17:22 46.879046 -114.456645 308 34039ft 404kts
01-Jul-23 17:23 46.944265 -114.588315 307 34038ft 396kts
01-Jul-23 17:24 47.008323 -114.718240 306 34043ft 390kts
01-Jul-23 17:25 47.071170 -114.846401 305 34041ft 386kts
01-Jul-23 17:26 47.133572 -114.974219 305 34051ft 387kts
01-Jul-23 17:27 47.196441 -115.103565 305 34047ft 389kts
01-Jul-23 17:28 47.259684 -115.234329 305 33380ft 397kts
01-Jul-23 17:29 47.323500 -115.366887 305 31385ft 401kts
01-Jul-23 17:30 47.387831 -115.501155 305 29371ft 397kts
01-Jul-23 17:31 47.449199 -115.633009 295 27318ft 386kts
01-Jul-23 17:32 47.465747 -115.788345 278 25349ft 381kts
01-Jul-23 17:33 47.475505 -115.946048 277 24057ft 399kts
01-Jul-23 17:34 47.485296 -116.109650 277 22949ft 392kts
01-Jul-23 17:35 47.494321 -116.264082 278 20919ft 363kts
01-Jul-23 17:36 47.502555 -116.407887 278 18899ft 345kts
01-Jul-23 17:37 47.510416 -116.548430 278 16879ft 337kts
01-Jul-23 17:38 47.517806 -116.683490 277 14859ft 324kts
01-Jul-23 17:39 47.533013 -116.808660 308 12835ft 288kts
01-Jul-23 17:40 47.582106 -116.899181 309 10846ft 279kts
01-Jul-23 17:41 47.625340 -116.974513 309 9413ft 228kts
01-Jul-23 17:42 47.667045 -117.044896 309 8412ft 228kts
01-Jul-23 17:43 47.709308 -117.115026 309 7408ft 227kts
01-Jul-23 17:44 47.751532 -117.183976 309 6987ft 225kts
01-Jul-23 17:45 47.784972 -117.258566 256 6291ft 217kts
01-Jul-23 17:46 47.755164 -117.329175 231 5299ft 190kts
01-Jul-23 17:47 47.721100 -117.382362 228 4817ft 173kts
01-Jul-23 17:48 47.693095 -117.424805 228 4059ft 124kts
01-Jul-23 17:49 47.668822 -117.461523 228 3420ft 124kts
01-Jul-23 17:50 47.644848 -117.497716 227 2741ft 125kts
01-Jul-23 17:51 47.623057 -117.530847 226 2357ft 66kts
01-Jul-23 17:52 47.619925 -117.538373 297 2367ft 2kts
01-Jul-23 17:53 47.621570 -117.536944 15 2363ft 18kts

Navigation Log

Ident Type
Flight plan parsing failed, navigation log unavailable